createdAt,value
2017-11-23T00:00:23.217Z,0.00
2017-11-23T00:01:23.219Z,0.00
2017-11-23T00:02:23.223Z,0.00
2017-11-23T00:03:23.227Z,0.00
2017-11-23T00:04:23.229Z,0.00
2017-11-23T00:05:23.232Z,0.00
2017-11-23T00:06:23.235Z,0.00
2017-11-23T00:07:23.238Z,0.00
2017-11-23T00:08:23.245Z,0.00
2017-11-23T00:09:23.245Z,0.00
2017-11-23T00:10:23.247Z,0.00
2017-11-23T00:11:23.254Z,0.00
2017-11-23T00:12:23.256Z,0.00
2017-11-23T00:13:23.258Z,0.00
2017-11-23T00:14:23.260Z,0.00
2017-11-23T00:15:23.265Z,0.00
2017-11-23T00:16:23.267Z,0.00
2017-11-23T00:17:23.270Z,0.00
2017-11-23T00:18:23.275Z,0.00
2017-11-23T00:19:23.274Z,0.00
2017-11-23T00:20:23.282Z,0.00
2017-11-23T00:21:23.283Z,0.00
2017-11-23T00:22:23.286Z,0.00
2017-11-23T00:23:23.290Z,0.00
2017-11-23T00:24:23.292Z,0.00
2017-11-23T00:25:23.296Z,0.00
2017-11-23T00:26:23.298Z,0.00
2017-11-23T00:27:23.307Z,0.00
2017-11-23T00:28:23.305Z,0.00
2017-11-23T00:29:23.308Z,0.00
2017-11-23T00:30:23.315Z,0.00
2017-11-23T00:31:23.316Z,0.00
2017-11-23T00:32:23.318Z,0.00
2017-11-23T00:33:23.320Z,0.00
2017-11-23T00:34:23.324Z,0.00
2017-11-23T00:35:23.326Z,0.00
2017-11-23T00:36:23.331Z,0.00
2017-11-23T00:37:23.337Z,0.00
2017-11-23T00:38:23.336Z,0.00
2017-11-23T00:39:23.340Z,0.00
2017-11-23T00:40:23.341Z,0.00
2017-11-23T00:41:23.345Z,0.00
2017-11-23T00:42:23.360Z,0.00
2017-11-23T00:43:23.351Z,0.00
2017-11-23T00:44:23.358Z,0.00
2017-11-23T00:45:23.358Z,0.00
2017-11-23T00:46:23.362Z,0.00
2017-11-23T00:47:23.366Z,0.00
2017-11-23T00:48:23.368Z,0.00
2017-11-23T00:49:23.371Z,0.00
2017-11-23T00:50:23.394Z,0.00
2017-11-23T00:51:23.377Z,0.00
2017-11-23T00:52:23.381Z,0.00
2017-11-23T00:53:23.382Z,0.00
2017-11-23T00:54:23.386Z,0.00
2017-11-23T00:55:23.393Z,0.00
2017-11-23T00:56:23.392Z,0.00
2017-11-23T00:57:23.395Z,0.00
2017-11-23T00:58:23.403Z,0.00
2017-11-23T00:59:23.403Z,0.00
2017-11-23T01:00:23.406Z,0.00
2017-11-23T01:01:23.409Z,0.00
2017-11-23T01:02:23.413Z,0.00
2017-11-23T01:03:23.417Z,0.00
2017-11-23T01:04:23.422Z,0.00
2017-11-23T01:05:23.420Z,0.00
2017-11-23T01:06:23.421Z,0.00
2017-11-23T01:07:23.429Z,0.00
2017-11-23T01:08:23.436Z,0.00
2017-11-23T01:09:23.433Z,0.00
2017-11-23T01:10:23.453Z,0.00
2017-11-23T01:11:23.439Z,0.00
2017-11-23T01:12:23.443Z,0.00
2017-11-23T01:13:23.444Z,0.00
2017-11-23T01:14:23.448Z,0.00
2017-11-23T01:15:23.449Z,0.00
2017-11-23T01:16:23.462Z,0.00
2017-11-23T01:17:23.456Z,0.00
2017-11-23T01:18:23.460Z,0.00
2017-11-23T01:19:23.470Z,0.00
2017-11-23T01:20:23.466Z,0.00
2017-11-23T01:21:23.468Z,0.00
2017-11-23T01:22:23.479Z,0.00
2017-11-23T01:23:23.483Z,0.00
2017-11-23T01:24:23.479Z,0.00
2017-11-23T01:25:23.481Z,0.00
2017-11-23T01:26:23.484Z,0.00
2017-11-23T01:27:23.488Z,0.00
2017-11-23T01:28:23.492Z,0.00
2017-11-23T01:29:23.509Z,0.00
2017-11-23T01:30:23.498Z,0.00
2017-11-23T01:31:23.501Z,0.00
2017-11-23T01:32:23.514Z,0.00
2017-11-23T01:33:23.515Z,0.00
2017-11-23T01:34:23.509Z,0.00
2017-11-23T01:35:23.513Z,0.00
2017-11-23T01:36:23.516Z,0.00
2017-11-23T01:37:23.518Z,0.00
2017-11-23T01:38:23.522Z,0.00
2017-11-23T01:39:23.525Z,0.00
2017-11-23T01:40:23.526Z,0.00
2017-11-23T01:41:23.530Z,0.00
2017-11-23T01:42:23.533Z,0.00
2017-11-23T01:43:23.536Z,0.00
2017-11-23T01:44:23.541Z,0.00
2017-11-23T01:45:23.542Z,0.00
2017-11-23T01:46:23.545Z,0.00
2017-11-23T01:47:23.549Z,0.00
2017-11-23T01:48:23.557Z,0.00
2017-11-23T01:49:23.559Z,0.00
2017-11-23T01:50:23.560Z,0.00
2017-11-23T01:51:23.561Z,0.00
2017-11-23T01:52:23.564Z,0.00
2017-11-23T01:53:23.567Z,0.00
2017-11-23T01:54:23.569Z,0.00
2017-11-23T01:55:23.570Z,0.00
2017-11-23T01:56:23.575Z,0.00
2017-11-23T01:57:23.608Z,0.00
2017-11-23T01:58:23.582Z,0.00
2017-11-23T01:59:23.585Z,0.00
2017-11-23T02:00:23.588Z,0.00
2017-11-23T02:01:23.589Z,0.00
2017-11-23T02:02:23.594Z,0.00
2017-11-23T02:03:23.597Z,0.00
2017-11-23T02:04:23.602Z,0.00
2017-11-23T02:05:23.603Z,0.00
2017-11-23T02:06:23.605Z,0.00
2017-11-23T02:07:23.609Z,0.00
2017-11-23T02:08:23.613Z,0.00
2017-11-23T02:09:23.614Z,0.00
2017-11-23T02:10:23.618Z,0.00
2017-11-23T02:11:23.620Z,0.00
2017-11-23T02:12:23.625Z,0.00
2017-11-23T02:13:23.627Z,0.00
2017-11-23T02:14:23.631Z,0.00
2017-11-23T02:15:23.633Z,0.00
2017-11-23T02:16:23.638Z,0.00
2017-11-23T02:17:23.639Z,0.00
2017-11-23T02:18:23.642Z,0.00
2017-11-23T02:19:23.645Z,0.00
2017-11-23T02:20:23.648Z,0.00
2017-11-23T02:21:23.650Z,0.00
2017-11-23T02:22:23.654Z,0.00
2017-11-23T02:23:23.657Z,0.00
2017-11-23T02:24:23.663Z,0.00
2017-11-23T02:25:23.662Z,0.00
2017-11-23T02:26:23.667Z,0.00
2017-11-23T02:27:23.669Z,0.00
2017-11-23T02:28:23.678Z,0.00
2017-11-23T02:29:23.678Z,0.00
2017-11-23T02:30:23.678Z,0.00
2017-11-23T02:31:23.683Z,0.00
2017-11-23T02:32:23.686Z,0.00
2017-11-23T02:33:23.687Z,0.00
2017-11-23T02:34:23.690Z,0.00
2017-11-23T02:35:23.695Z,0.00
2017-11-23T02:36:23.707Z,0.00
2017-11-23T02:37:23.699Z,0.00
2017-11-23T02:38:23.720Z,0.00
2017-11-23T02:39:23.705Z,0.00
2017-11-23T02:40:23.711Z,0.00
2017-11-23T02:41:23.712Z,0.00
2017-11-23T02:42:23.717Z,0.00
2017-11-23T02:43:23.722Z,0.00
2017-11-23T02:44:23.723Z,0.00
2017-11-23T02:45:23.732Z,0.00
2017-11-23T02:46:23.729Z,0.00
2017-11-23T02:47:23.730Z,0.00
2017-11-23T02:48:23.734Z,0.00
2017-11-23T02:49:23.739Z,0.00
2017-11-23T02:50:23.740Z,0.00
2017-11-23T02:51:23.745Z,0.00
2017-11-23T02:52:23.746Z,0.00
2017-11-23T02:53:23.758Z,0.00
2017-11-23T02:54:23.750Z,0.00
2017-11-23T02:55:23.755Z,0.00
2017-11-23T02:56:23.764Z,0.00
2017-11-23T02:57:23.759Z,0.00
2017-11-23T02:58:23.763Z,0.00
2017-11-23T02:59:23.766Z,0.00
2017-11-23T03:00:23.775Z,0.00
2017-11-23T03:01:23.776Z,0.00
2017-11-23T03:02:23.777Z,0.00
2017-11-23T03:03:23.780Z,0.00
2017-11-23T03:04:23.793Z,0.00
2017-11-23T03:05:23.795Z,0.00
2017-11-23T03:06:23.794Z,0.00
2017-11-23T03:07:23.798Z,0.00
2017-11-23T03:08:23.800Z,0.00
2017-11-23T03:09:23.800Z,0.00
2017-11-23T03:10:23.799Z,0.00
2017-11-23T03:11:23.803Z,0.00
2017-11-23T03:12:23.805Z,0.00
2017-11-23T03:13:23.808Z,0.00
2017-11-23T03:14:23.811Z,0.00
2017-11-23T03:15:23.819Z,0.00
2017-11-23T03:16:23.819Z,0.00
2017-11-23T03:17:23.821Z,0.00
2017-11-23T03:18:23.823Z,0.00
2017-11-23T03:19:23.828Z,0.00
2017-11-23T03:20:23.829Z,0.00
2017-11-23T03:21:23.831Z,0.00
2017-11-23T03:22:23.835Z,0.00
2017-11-23T03:23:23.839Z,0.00
2017-11-23T03:24:23.842Z,0.00
2017-11-23T03:25:23.846Z,0.00
2017-11-23T03:26:23.852Z,0.00
2017-11-23T03:27:23.854Z,0.00
2017-11-23T03:28:23.855Z,0.00
2017-11-23T03:29:23.865Z,0.00
2017-11-23T03:30:23.862Z,0.00
2017-11-23T03:31:23.863Z,0.00
2017-11-23T03:32:23.876Z,0.00
2017-11-23T03:33:23.886Z,0.00
2017-11-23T03:34:23.878Z,0.00
2017-11-23T03:35:23.876Z,0.00
2017-11-23T03:36:23.879Z,0.00
2017-11-23T03:37:23.886Z,0.00
2017-11-23T03:38:23.883Z,0.00
2017-11-23T03:39:23.887Z,0.00
2017-11-23T03:40:23.890Z,0.00
2017-11-23T03:41:23.892Z,0.00
2017-11-23T03:42:23.895Z,0.00
2017-11-23T03:43:23.908Z,0.00
2017-11-23T03:44:23.902Z,0.00
2017-11-23T03:45:23.904Z,0.00
2017-11-23T03:46:23.907Z,0.00
2017-11-23T03:47:23.910Z,0.00
2017-11-23T03:48:23.914Z,0.00
2017-11-23T03:49:23.922Z,0.00
2017-11-23T03:50:23.919Z,0.00
2017-11-23T03:51:23.924Z,0.00
2017-11-23T03:52:23.926Z,0.00
2017-11-23T03:53:23.928Z,0.00
2017-11-23T03:54:23.932Z,0.00
2017-11-23T03:55:23.937Z,0.00
2017-11-23T03:56:23.939Z,0.00
2017-11-23T03:57:23.942Z,0.00
2017-11-23T03:58:23.943Z,0.00
2017-11-23T03:59:23.958Z,0.00
2017-11-23T04:00:23.959Z,0.00
2017-11-23T04:01:23.962Z,0.00
2017-11-23T04:02:23.962Z,0.00
2017-11-23T04:03:23.962Z,0.00
2017-11-23T04:04:23.963Z,0.00
2017-11-23T04:05:23.963Z,0.00
2017-11-23T04:06:23.966Z,0.00
2017-11-23T04:07:23.972Z,0.00
2017-11-23T04:08:23.974Z,0.00
2017-11-23T04:09:23.982Z,0.00
2017-11-23T04:10:23.980Z,0.00
2017-11-23T04:11:23.982Z,0.00
2017-11-23T04:12:23.987Z,0.00
2017-11-23T04:13:23.987Z,0.00
2017-11-23T04:14:23.992Z,0.00
2017-11-23T04:15:23.994Z,0.00
2017-11-23T04:16:23.997Z,0.00
2017-11-23T04:17:24.000Z,0.00
2017-11-23T04:18:24.003Z,0.00
2017-11-23T04:19:24.006Z,0.00
2017-11-23T04:20:24.010Z,0.00
2017-11-23T04:21:24.013Z,0.00
2017-11-23T04:22:24.015Z,0.00
2017-11-23T04:23:24.018Z,0.00
2017-11-23T04:24:24.024Z,0.00
2017-11-23T04:25:24.037Z,0.00
2017-11-23T04:26:24.042Z,0.00
2017-11-23T04:27:24.040Z,0.00
2017-11-23T04:28:24.043Z,0.00
2017-11-23T04:29:24.042Z,0.00
2017-11-23T04:30:24.043Z,0.00
2017-11-23T04:31:24.043Z,0.00
2017-11-23T04:32:24.046Z,0.00
2017-11-23T04:33:24.055Z,0.00
2017-11-23T04:34:24.052Z,0.00
2017-11-23T04:35:24.055Z,0.00
2017-11-23T04:36:24.059Z,0.00
2017-11-23T04:37:24.061Z,0.00
2017-11-23T04:38:24.067Z,0.00
2017-11-23T04:39:24.070Z,0.00
2017-11-23T04:40:24.071Z,0.00
2017-11-23T04:41:24.076Z,0.00
2017-11-23T04:42:24.085Z,0.00
2017-11-23T04:43:24.086Z,0.00
2017-11-23T04:44:24.088Z,0.00
2017-11-23T04:45:24.087Z,0.00
2017-11-23T04:46:24.089Z,0.00
2017-11-23T04:47:24.094Z,0.00
2017-11-23T04:48:24.096Z,0.00
2017-11-23T04:49:24.110Z,0.00
2017-11-23T04:50:24.103Z,0.00
2017-11-23T04:51:24.115Z,0.00
2017-11-23T04:52:24.109Z,0.00
2017-11-23T04:53:24.114Z,0.00
2017-11-23T04:54:24.115Z,0.00
2017-11-23T04:55:24.135Z,0.00
2017-11-23T04:56:24.122Z,0.00
2017-11-23T04:57:24.124Z,0.00
2017-11-23T04:58:24.128Z,0.00
2017-11-23T04:59:24.132Z,0.00
2017-11-23T05:00:24.137Z,0.00
2017-11-23T05:01:24.219Z,0.00
2017-11-23T05:02:24.141Z,0.00
2017-11-23T05:03:24.142Z,0.00
2017-11-23T05:04:24.149Z,0.00
2017-11-23T05:05:24.158Z,0.00
2017-11-23T05:06:24.153Z,0.00
2017-11-23T05:07:24.163Z,0.00
2017-11-23T05:08:24.164Z,0.00
2017-11-23T05:09:24.165Z,0.00
2017-11-23T05:10:24.166Z,0.00
2017-11-23T05:11:24.167Z,0.00
2017-11-23T05:12:24.172Z,0.00
2017-11-23T05:13:24.175Z,0.00
2017-11-23T05:14:24.180Z,0.00
2017-11-23T05:15:24.182Z,0.00
2017-11-23T05:16:24.185Z,0.00
2017-11-23T05:17:24.189Z,0.00
2017-11-23T05:18:24.192Z,0.00
2017-11-23T05:19:24.197Z,0.00
2017-11-23T05:20:24.199Z,0.00
2017-11-23T05:21:24.204Z,0.00
2017-11-23T05:22:24.204Z,0.00
2017-11-23T05:23:24.212Z,0.00
2017-11-23T05:24:24.212Z,0.00
2017-11-23T05:25:24.214Z,0.00
2017-11-23T05:26:24.215Z,0.00
2017-11-23T05:27:24.220Z,0.00
2017-11-23T05:28:24.231Z,0.00
2017-11-23T05:29:24.226Z,0.00
2017-11-23T05:30:24.238Z,0.00
2017-11-23T05:31:24.233Z,0.00
2017-11-23T05:32:24.238Z,0.00
2017-11-23T05:33:24.239Z,0.00
2017-11-23T05:34:24.243Z,0.00
2017-11-23T05:35:24.249Z,0.00
2017-11-23T05:36:24.249Z,0.00
2017-11-23T05:37:24.251Z,0.00
2017-11-23T05:38:24.256Z,0.00
2017-11-23T05:39:24.263Z,0.00
2017-11-23T05:40:24.263Z,0.00
2017-11-23T05:41:24.270Z,0.00
2017-11-23T05:42:24.269Z,0.00
2017-11-23T05:43:24.273Z,0.00
2017-11-23T05:44:24.276Z,0.00
2017-11-23T05:45:24.279Z,0.00
2017-11-23T05:46:24.281Z,0.00
2017-11-23T05:47:24.285Z,0.00
2017-11-23T05:48:24.293Z,0.00
2017-11-23T05:49:24.293Z,0.00
2017-11-23T05:50:24.298Z,0.00
2017-11-23T05:51:24.299Z,0.00
2017-11-23T05:52:24.302Z,0.00
2017-11-23T05:53:24.304Z,0.00
2017-11-23T05:54:24.310Z,0.00
2017-11-23T05:55:24.317Z,0.00
2017-11-23T05:56:24.315Z,0.00
2017-11-23T05:57:24.317Z,0.00
2017-11-23T05:58:24.322Z,0.00
2017-11-23T05:59:24.325Z,0.00
2017-11-23T06:00:24.330Z,0.00
2017-11-23T06:01:24.330Z,0.00
2017-11-23T06:02:24.344Z,0.00
2017-11-23T06:03:24.338Z,0.00
2017-11-23T06:04:24.341Z,0.00
2017-11-23T06:05:24.344Z,0.00
2017-11-23T06:06:24.346Z,0.00
2017-11-23T06:07:24.351Z,0.00
2017-11-23T06:08:24.354Z,0.00
2017-11-23T06:09:24.357Z,0.00
2017-11-23T06:10:24.360Z,0.00
2017-11-23T06:11:24.367Z,0.00
2017-11-23T06:12:24.367Z,0.00
2017-11-23T06:13:24.370Z,0.00
2017-11-23T06:14:24.374Z,0.00
2017-11-23T06:15:24.380Z,0.00
2017-11-23T06:16:24.381Z,0.00
2017-11-23T06:17:24.385Z,0.00
2017-11-23T06:18:24.389Z,0.00
2017-11-23T06:19:24.390Z,0.00
2017-11-23T06:20:24.394Z,0.00
2017-11-23T06:21:24.395Z,0.00
2017-11-23T06:22:24.400Z,0.00
2017-11-23T06:23:24.410Z,0.00
2017-11-23T06:24:24.408Z,0.00
2017-11-23T06:25:24.410Z,0.00
2017-11-23T06:26:24.416Z,0.00
2017-11-23T06:27:24.417Z,0.00
2017-11-23T06:28:24.420Z,0.00
2017-11-23T06:29:24.427Z,4.00
2017-11-23T06:30:24.426Z,4.00
2017-11-23T06:31:24.432Z,4.00
2017-11-23T06:32:24.434Z,0.00
2017-11-23T06:33:24.438Z,4.00
2017-11-23T06:34:24.440Z,4.00
2017-11-23T06:35:24.443Z,8.00
2017-11-23T06:36:24.448Z,4.00
2017-11-23T06:37:24.451Z,8.00
2017-11-23T06:38:24.453Z,8.00
2017-11-23T06:39:24.457Z,8.00
2017-11-23T06:40:24.460Z,8.00
2017-11-23T06:41:24.464Z,12.00
2017-11-23T06:42:24.466Z,12.00
2017-11-23T06:43:24.468Z,16.00
2017-11-23T06:44:24.474Z,16.00
2017-11-23T06:45:24.477Z,16.00
2017-11-23T06:46:24.479Z,20.00
2017-11-23T06:47:24.484Z,20.00
2017-11-23T06:48:24.488Z,20.00
2017-11-23T06:49:24.490Z,24.00
2017-11-23T06:50:24.499Z,24.00
2017-11-23T06:51:24.496Z,24.00
2017-11-23T06:52:24.501Z,28.00
2017-11-23T06:53:24.502Z,28.00
2017-11-23T06:54:24.505Z,32.00
2017-11-23T06:55:24.509Z,32.00
2017-11-23T06:56:24.526Z,32.00
2017-11-23T06:57:24.518Z,36.00
2017-11-23T06:58:24.520Z,40.00
2017-11-23T06:59:24.525Z,40.00
2017-11-23T07:00:24.527Z,44.00
2017-11-23T07:01:24.532Z,304.00
2017-11-23T07:02:24.532Z,368.00
2017-11-23T07:03:24.538Z,44.00
2017-11-23T07:04:24.543Z,48.00
2017-11-23T07:05:24.543Z,48.00
2017-11-23T07:06:24.546Z,52.00
2017-11-23T07:07:24.551Z,52.00
2017-11-23T07:08:24.555Z,56.00
2017-11-23T07:09:24.556Z,60.00
2017-11-23T07:10:24.560Z,60.00
2017-11-23T07:11:24.566Z,60.00
2017-11-23T07:12:24.567Z,68.00
2017-11-23T07:13:24.570Z,68.00
2017-11-23T07:14:24.573Z,72.00
2017-11-23T07:15:24.576Z,72.00
2017-11-23T07:16:24.582Z,76.00
2017-11-23T07:17:24.585Z,76.00
2017-11-23T07:18:24.587Z,80.00
2017-11-23T07:19:24.590Z,84.00
2017-11-23T07:20:24.595Z,88.00
2017-11-23T07:21:24.598Z,88.00
2017-11-23T07:22:24.601Z,92.00
2017-11-23T07:23:24.603Z,96.00
2017-11-23T07:24:24.607Z,92.00
2017-11-23T07:25:24.610Z,96.00
2017-11-23T07:26:24.619Z,100.00
2017-11-23T07:27:24.621Z,96.00
2017-11-23T07:28:24.625Z,100.00
2017-11-23T07:29:24.624Z,100.00
2017-11-23T07:30:24.628Z,100.00
2017-11-23T07:31:24.631Z,100.00
2017-11-23T07:32:24.635Z,104.00
2017-11-23T07:33:24.639Z,104.00
2017-11-23T07:34:24.645Z,104.00
2017-11-23T07:35:24.643Z,104.00
2017-11-23T07:36:24.647Z,104.00
2017-11-23T07:37:24.652Z,108.00
2017-11-23T07:38:24.654Z,108.00
2017-11-23T07:39:24.657Z,108.00
2017-11-23T07:40:24.676Z,112.00
2017-11-23T07:41:24.665Z,116.00
2017-11-23T07:42:24.676Z,116.00
2017-11-23T07:43:24.671Z,120.00
2017-11-23T07:44:24.675Z,128.00
2017-11-23T07:45:24.680Z,348.00
2017-11-23T07:46:24.681Z,396.00
2017-11-23T07:47:24.688Z,408.00
2017-11-23T07:48:24.689Z,432.00
2017-11-23T07:49:24.692Z,436.00
2017-11-23T07:50:24.700Z,440.00
2017-11-23T07:51:24.697Z,444.00
2017-11-23T07:52:24.699Z,444.00
2017-11-23T07:53:24.705Z,448.00
2017-11-23T07:54:24.707Z,428.00
2017-11-23T07:55:24.711Z,424.00
2017-11-23T07:56:24.719Z,424.00
2017-11-23T07:57:24.717Z,420.00
2017-11-23T07:58:24.722Z,428.00
2017-11-23T07:59:24.724Z,432.00
2017-11-23T08:00:24.728Z,432.00
2017-11-23T08:01:24.739Z,432.00
2017-11-23T08:02:24.735Z,424.00
2017-11-23T08:03:24.737Z,432.00
2017-11-23T08:04:24.746Z,428.00
2017-11-23T08:05:24.746Z,432.00
2017-11-23T08:06:24.747Z,436.00
2017-11-23T08:07:24.749Z,432.00
2017-11-23T08:08:24.752Z,432.00
2017-11-23T08:09:24.756Z,436.00
2017-11-23T08:10:24.758Z,432.00
2017-11-23T08:11:24.768Z,432.00
2017-11-23T08:12:24.765Z,436.00
2017-11-23T08:13:24.768Z,460.00
2017-11-23T08:14:24.771Z,440.00
2017-11-23T08:15:24.774Z,432.00
2017-11-23T08:16:24.776Z,436.00
2017-11-23T08:17:24.779Z,436.00
2017-11-23T08:18:24.782Z,440.00
2017-11-23T08:19:24.786Z,444.00
2017-11-23T08:20:24.789Z,452.00
2017-11-23T08:21:24.795Z,480.00
2017-11-23T08:22:24.795Z,452.00
2017-11-23T08:23:24.797Z,448.00
2017-11-23T08:24:24.801Z,448.00
2017-11-23T08:25:24.804Z,444.00
2017-11-23T08:26:24.806Z,456.00
2017-11-23T08:27:24.810Z,456.00
2017-11-23T08:28:24.815Z,448.00
2017-11-23T08:29:24.814Z,452.00
2017-11-23T08:30:24.831Z,472.00
2017-11-23T08:31:24.823Z,476.00
2017-11-23T08:32:24.828Z,488.00
2017-11-23T08:33:24.829Z,476.00
2017-11-23T08:34:24.833Z,488.00
2017-11-23T08:35:24.836Z,492.00
2017-11-23T08:36:24.840Z,484.00
2017-11-23T08:37:24.840Z,552.00
2017-11-23T08:38:24.847Z,568.00
2017-11-23T08:39:24.849Z,572.00
2017-11-23T08:40:24.853Z,568.00
2017-11-23T08:41:24.857Z,560.00
2017-11-23T08:42:24.859Z,564.00
2017-11-23T08:43:24.861Z,568.00
2017-11-23T08:44:24.880Z,576.00
2017-11-23T08:45:24.866Z,580.00
2017-11-23T08:46:24.872Z,580.00
2017-11-23T08:47:24.874Z,540.00
2017-11-23T08:48:24.886Z,544.00
2017-11-23T08:49:24.881Z,564.00
2017-11-23T08:50:24.883Z,552.00
2017-11-23T08:51:24.888Z,548.00
2017-11-23T08:52:24.891Z,560.00
2017-11-23T08:53:24.893Z,556.00
2017-11-23T08:54:24.898Z,564.00
2017-11-23T08:55:24.901Z,532.00
2017-11-23T08:56:24.916Z,556.00
2017-11-23T08:57:24.909Z,556.00
2017-11-23T08:58:24.912Z,568.00
2017-11-23T08:59:24.915Z,516.00
2017-11-23T09:00:24.918Z,512.00
2017-11-23T09:01:24.921Z,540.00
2017-11-23T09:02:24.925Z,568.00
2017-11-23T09:03:24.930Z,560.00
2017-11-23T09:04:24.932Z,540.00
2017-11-23T09:05:24.936Z,564.00
2017-11-23T09:06:24.939Z,576.00
2017-11-23T09:07:24.944Z,584.00
2017-11-23T09:08:24.946Z,584.00
2017-11-23T09:09:24.949Z,588.00
2017-11-23T09:10:24.953Z,592.00
2017-11-23T09:11:24.955Z,532.00
2017-11-23T09:12:24.965Z,544.00
2017-11-23T09:13:24.965Z,544.00
2017-11-23T09:14:24.966Z,540.00
2017-11-23T09:15:24.971Z,548.00
2017-11-23T09:16:24.977Z,544.00
2017-11-23T09:17:24.977Z,544.00
2017-11-23T09:18:25.000Z,532.00
2017-11-23T09:19:24.986Z,536.00
2017-11-23T09:20:24.991Z,544.00
2017-11-23T09:21:24.991Z,548.00
2017-11-23T09:22:24.995Z,608.00
2017-11-23T09:23:25.013Z,556.00
2017-11-23T09:24:25.002Z,556.00
2017-11-23T09:25:25.003Z,564.00
2017-11-23T09:26:25.019Z,564.00
2017-11-23T09:27:25.017Z,616.00
2017-11-23T09:28:25.016Z,616.00
2017-11-23T09:29:25.018Z,616.00
2017-11-23T09:30:25.030Z,608.00
2017-11-23T09:31:25.024Z,620.00
2017-11-23T09:32:25.029Z,580.00
2017-11-23T09:33:25.032Z,588.00
2017-11-23T09:34:25.036Z,576.00
2017-11-23T09:35:25.044Z,580.00
2017-11-23T09:36:25.045Z,572.00
2017-11-23T09:37:25.046Z,620.00
2017-11-23T09:38:25.051Z,620.00
2017-11-23T09:39:25.051Z,616.00
2017-11-23T09:40:25.056Z,616.00
2017-11-23T09:41:25.058Z,616.00
2017-11-23T09:42:25.074Z,616.00
2017-11-23T09:43:25.087Z,620.00
2017-11-23T09:44:25.070Z,620.00
2017-11-23T09:45:25.082Z,620.00
2017-11-23T09:46:25.085Z,588.00
2017-11-23T09:47:25.079Z,620.00
2017-11-23T09:48:25.100Z,624.00
2017-11-23T09:49:25.084Z,628.00
2017-11-23T09:50:25.088Z,596.00
2017-11-23T09:51:25.094Z,628.00
2017-11-23T09:52:25.098Z,624.00
2017-11-23T09:53:25.100Z,624.00
2017-11-23T09:54:25.102Z,616.00
2017-11-23T09:55:25.108Z,612.00
2017-11-23T09:56:25.112Z,604.00
2017-11-23T09:57:25.114Z,604.00
2017-11-23T09:58:25.127Z,604.00
2017-11-23T09:59:25.122Z,596.00
2017-11-23T10:00:25.125Z,588.00
2017-11-23T10:01:25.134Z,596.00
2017-11-23T10:02:25.133Z,592.00
2017-11-23T10:03:25.135Z,560.00
2017-11-23T10:04:25.138Z,576.00
2017-11-23T10:05:25.142Z,584.00
2017-11-23T10:06:25.149Z,584.00
2017-11-23T10:07:25.149Z,584.00
2017-11-23T10:08:25.154Z,572.00
2017-11-23T10:09:25.156Z,588.00
2017-11-23T10:10:25.160Z,588.00
2017-11-23T10:11:25.162Z,584.00
2017-11-23T10:12:25.167Z,572.00
2017-11-23T10:13:25.172Z,580.00
2017-11-23T10:14:25.181Z,572.00
2017-11-23T10:15:25.185Z,568.00
2017-11-23T10:16:25.185Z,556.00
2017-11-23T10:17:25.186Z,580.00
2017-11-23T10:18:25.187Z,580.00
2017-11-23T10:19:25.194Z,580.00
2017-11-23T10:20:25.195Z,592.00
2017-11-23T10:21:25.197Z,584.00
2017-11-23T10:22:25.201Z,580.00
2017-11-23T10:23:25.214Z,576.00
2017-11-23T10:24:25.209Z,576.00
2017-11-23T10:25:25.216Z,576.00
2017-11-23T10:26:25.216Z,576.00
2017-11-23T10:27:25.218Z,560.00
2017-11-23T10:28:25.224Z,556.00
2017-11-23T10:29:25.224Z,556.00
2017-11-23T10:30:25.244Z,556.00
2017-11-23T10:31:25.235Z,560.00
2017-11-23T10:32:25.236Z,560.00
2017-11-23T10:33:25.241Z,568.00
2017-11-23T10:34:25.252Z,568.00
2017-11-23T10:35:25.254Z,572.00
2017-11-23T10:36:25.262Z,564.00
2017-11-23T10:37:25.251Z,568.00
2017-11-23T10:38:25.257Z,572.00
2017-11-23T10:39:25.271Z,588.00
2017-11-23T10:40:25.266Z,592.00
2017-11-23T10:41:25.266Z,592.00
2017-11-23T10:42:25.270Z,596.00
2017-11-23T10:43:25.286Z,584.00
2017-11-23T10:44:25.290Z,592.00
2017-11-23T10:45:25.285Z,588.00
2017-11-23T10:46:25.286Z,584.00
2017-11-23T10:47:25.287Z,568.00
2017-11-23T10:48:25.301Z,576.00
2017-11-23T10:49:25.292Z,564.00
2017-11-23T10:50:25.298Z,276.00
2017-11-23T10:51:25.305Z,560.00
2017-11-23T10:52:25.311Z,540.00
2017-11-23T10:53:25.325Z,448.00
2017-11-23T10:54:25.310Z,560.00
2017-11-23T10:55:25.316Z,564.00
2017-11-23T10:56:25.317Z,576.00
2017-11-23T10:57:25.321Z,584.00
2017-11-23T10:58:25.333Z,596.00
2017-11-23T10:59:25.327Z,608.00
2017-11-23T11:00:25.332Z,616.00
2017-11-23T11:01:25.334Z,620.00
2017-11-23T11:02:25.338Z,620.00
2017-11-23T11:03:25.350Z,620.00
2017-11-23T11:04:25.345Z,624.00
2017-11-23T11:05:25.349Z,328.00
2017-11-23T11:06:25.371Z,328.00
2017-11-23T11:07:25.365Z,324.00
2017-11-23T11:08:25.358Z,312.00
2017-11-23T11:09:25.361Z,308.00
2017-11-23T11:10:25.368Z,300.00
2017-11-23T11:11:25.367Z,300.00
2017-11-23T11:12:25.372Z,300.00
2017-11-23T11:13:25.375Z,300.00
2017-11-23T11:14:25.379Z,304.00
2017-11-23T11:15:25.382Z,312.00
2017-11-23T11:16:25.387Z,320.00
2017-11-23T11:17:25.408Z,324.00
2017-11-23T11:18:25.393Z,276.00
2017-11-23T11:19:25.398Z,268.00
2017-11-23T11:20:25.408Z,280.00
2017-11-23T11:21:25.411Z,284.00
2017-11-23T11:22:25.415Z,276.00
2017-11-23T11:23:25.414Z,272.00
2017-11-23T11:24:25.420Z,260.00
2017-11-23T11:25:25.420Z,260.00
2017-11-23T11:26:25.421Z,260.00
2017-11-23T11:27:25.428Z,264.00
2017-11-23T11:28:25.432Z,268.00
2017-11-23T11:29:25.434Z,264.00
2017-11-23T11:30:25.439Z,252.00
2017-11-23T11:31:25.444Z,244.00
2017-11-23T11:32:25.447Z,240.00
2017-11-23T11:33:25.452Z,248.00
2017-11-23T11:34:25.455Z,260.00
2017-11-23T11:35:25.457Z,264.00
2017-11-23T11:36:25.462Z,268.00
2017-11-23T11:37:25.466Z,276.00
2017-11-23T11:38:25.469Z,284.00
2017-11-23T11:39:25.473Z,288.00
2017-11-23T11:40:25.477Z,296.00
2017-11-23T11:41:25.481Z,304.00
2017-11-23T11:42:25.493Z,320.00
2017-11-23T11:43:25.493Z,328.00
2017-11-23T11:44:25.494Z,332.00
2017-11-23T11:45:25.503Z,336.00
2017-11-23T11:46:25.500Z,324.00
2017-11-23T11:47:25.505Z,320.00
2017-11-23T11:48:25.508Z,320.00
2017-11-23T11:49:25.511Z,332.00
2017-11-23T11:50:25.516Z,328.00
2017-11-23T11:51:25.521Z,304.00
2017-11-23T11:52:25.523Z,264.00
2017-11-23T11:53:25.526Z,252.00
2017-11-23T11:54:25.532Z,252.00
2017-11-23T11:55:25.535Z,256.00
2017-11-23T11:56:25.539Z,256.00
2017-11-23T11:57:25.565Z,256.00
2017-11-23T11:58:25.549Z,260.00
2017-11-23T11:59:25.550Z,272.00
2017-11-23T12:00:25.558Z,288.00
2017-11-23T12:01:25.558Z,300.00
2017-11-23T12:02:25.567Z,308.00
2017-11-23T12:03:25.580Z,316.00
2017-11-23T12:04:25.588Z,324.00
2017-11-23T12:05:25.571Z,324.00
2017-11-23T12:06:25.578Z,316.00
2017-11-23T12:07:25.581Z,308.00
2017-11-23T12:08:25.585Z,292.00
2017-11-23T12:09:25.588Z,252.00
2017-11-23T12:10:25.594Z,272.00
2017-11-23T12:11:25.598Z,264.00
2017-11-23T12:12:25.601Z,228.00
2017-11-23T12:13:25.605Z,220.00
2017-11-23T12:14:25.608Z,216.00
2017-11-23T12:15:25.613Z,236.00
2017-11-23T12:16:25.616Z,232.00
2017-11-23T12:17:25.622Z,236.00
2017-11-23T12:18:25.622Z,216.00
2017-11-23T12:19:25.626Z,192.00
2017-11-23T12:20:25.631Z,188.00
2017-11-23T12:21:25.632Z,180.00
2017-11-23T12:22:25.640Z,180.00
2017-11-23T12:23:25.640Z,188.00
2017-11-23T12:24:25.645Z,136.00
2017-11-23T12:25:25.647Z,196.00
2017-11-23T12:26:25.651Z,200.00
2017-11-23T12:27:25.655Z,192.00
2017-11-23T12:28:25.660Z,120.00
2017-11-23T12:29:25.662Z,208.00
2017-11-23T12:30:25.665Z,176.00
2017-11-23T12:31:25.680Z,180.00
2017-11-23T12:32:25.674Z,172.00
2017-11-23T12:33:25.677Z,164.00
2017-11-23T12:34:25.685Z,188.00
2017-11-23T12:35:25.685Z,236.00
2017-11-23T12:36:25.686Z,212.00
2017-11-23T12:37:25.692Z,232.00
2017-11-23T12:38:25.695Z,224.00
2017-11-23T12:39:25.699Z,224.00
2017-11-23T12:40:25.706Z,200.00
2017-11-23T12:41:25.705Z,196.00
2017-11-23T12:42:25.708Z,188.00
2017-11-23T12:43:25.717Z,188.00
2017-11-23T12:44:25.718Z,192.00
2017-11-23T12:45:25.720Z,200.00
2017-11-23T12:46:25.723Z,200.00
2017-11-23T12:47:25.734Z,204.00
2017-11-23T12:48:25.733Z,208.00
2017-11-23T12:49:25.734Z,212.00
2017-11-23T12:50:25.739Z,212.00
2017-11-23T12:51:25.745Z,212.00
2017-11-23T12:52:25.747Z,200.00
2017-11-23T12:53:25.749Z,216.00
2017-11-23T12:54:25.756Z,216.00